sensor_id;sensor_type;location;lat;lon;timestamp;temperature;humidity
52397;DHT22;38322;53.108;6.308;2022-12-18T06:00:34;-5.90;99.90
52397;DHT22;38322;53.108;6.308;2022-12-18T06:03:01;-6.00;99.90
52397;DHT22;38322;53.108;6.308;2022-12-18T06:05:27;-6.00;99.90
52397;DHT22;38322;53.108;6.308;2022-12-18T06:07:53;-6.00;99.90
52397;DHT22;38322;53.108;6.308;2022-12-18T06:10:19;-6.00;99.90
52397;DHT22;38322;53.108;6.308;2022-12-18T06:12:44;-6.00;99.90
52397;DHT22;38322;53.108;6.308;2022-12-18T06:15:10;-6.00;99.90
52397;DHT22;38322;53.108;6.308;2022-12-18T06:17:36;-6.00;99.90
52397;DHT22;38322;53.108;6.308;2022-12-18T06:20:03;-6.00;99.90
52397;DHT22;38322;53.108;6.308;2022-12-18T06:22:31;-6.00;99.90
52397;DHT22;38322;53.108;6.308;2022-12-18T06:24:57;-6.00;99.90
52397;DHT22;38322;53.108;6.308;2022-12-18T06:27:23;-6.10;99.90
52397;DHT22;38322;53.108;6.308;2022-12-18T06:29:49;-6.00;99.90
52397;DHT22;38322;53.108;6.308;2022-12-18T06:32:15;-6.10;99.90
52397;DHT22;38322;53.108;6.308;2022-12-18T06:34:40;-6.10;99.90
52397;DHT22;38322;53.108;6.308;2022-12-18T06:37:06;-6.10;99.90
52397;DHT22;38322;53.108;6.308;2022-12-18T06:39:32;-6.10;99.90
52397;DHT22;38322;53.108;6.308;2022-12-18T06:41:58;-6.10;99.90
52397;DHT22;38322;53.108;6.308;2022-12-18T06:44:24;-6.20;99.90
52397;DHT22;38322;53.108;6.308;2022-12-18T06:46:49;-6.20;99.90
52397;DHT22;38322;53.108;6.308;2022-12-18T06:49:15;-6.20;99.90
52397;DHT22;38322;53.108;6.308;2022-12-18T06:51:42;-6.20;99.90
52397;DHT22;38322;53.108;6.308;2022-12-18T06:54:08;-6.20;99.90
52397;DHT22;38322;53.108;6.308;2022-12-18T06:56:33;-6.30;99.90
52397;DHT22;38322;53.108;6.308;2022-12-18T06:59:00;-6.30;99.90
52397;DHT22;38322;53.108;6.308;2022-12-18T07:01:26;-6.30;99.90
52397;DHT22;38322;53.108;6.308;2022-12-18T07:03:53;-6.30;99.90
52397;DHT22;38322;53.108;6.308;2022-12-18T07:06:21;-6.30;99.90
52397;DHT22;38322;53.108;6.308;2022-12-18T07:08:48;-6.30;99.90
52397;DHT22;38322;53.108;6.308;2022-12-18T07:11:14;-6.30;99.90
52397;DHT22;38322;53.108;6.308;2022-12-18T07:13:40;-6.40;99.90
52397;DHT22;38322;53.108;6.308;2022-12-18T07:16:12;-6.40;99.90
52397;DHT22;38322;53.108;6.308;2022-12-18T07:18:38;-6.30;99.90
52397;DHT22;38322;53.108;6.308;2022-12-18T07:21:12;-6.30;99.90
52397;DHT22;38322;53.108;6.308;2022-12-18T07:23:38;-6.40;99.90
52397;DHT22;38322;53.108;6.308;2022-12-18T07:26:06;-6.40;99.90
52397;DHT22;38322;53.108;6.308;2022-12-18T07:28:33;-6.30;99.90
52397;DHT22;38322;53.108;6.308;2022-12-18T07:31:07;-6.30;99.90
52397;DHT22;38322;53.108;6.308;2022-12-18T07:33:33;-6.30;99.90
52397;DHT22;38322;53.108;6.308;2022-12-18T07:36:00;-6.30;99.90
52397;DHT22;38322;53.108;6.308;2022-12-18T07:38:26;-6.20;99.90
52397;DHT22;38322;53.108;6.308;2022-12-18T07:40:52;-5.20;99.90
52397;DHT22;38322;53.108;6.308;2022-12-18T07:43:18;-6.20;99.90
52397;DHT22;38322;53.108;6.308;2022-12-18T07:45:44;-6.20;99.90
52397;DHT22;38322;53.108;6.308;2022-12-18T07:48:10;-6.20;99.90
52397;DHT22;38322;53.108;6.308;2022-12-18T07:50:37;-6.20;99.90
52397;DHT22;38322;53.108;6.308;2022-12-18T07:53:02;-6.10;99.90
52397;DHT22;38322;53.108;6.308;2022-12-18T07:55:31;-6.10;99.90
52397;DHT22;38322;53.108;6.308;2022-12-18T07:57:57;-6.10;99.90
52397;DHT22;38322;53.108;6.308;2022-12-18T08:00:22;-6.00;99.90
52397;DHT22;38322;53.108;6.308;2022-12-18T08:02:48;-6.00;99.90
52397;DHT22;38322;53.108;6.308;2022-12-18T08:05:14;-6.00;99.90
52397;DHT22;38322;53.108;6.308;2022-12-18T08:07:40;-5.90;99.90
52397;DHT22;38322;53.108;6.308;2022-12-18T08:10:06;-5.90;99.90
52397;DHT22;38322;53.108;6.308;2022-12-18T08:12:32;-5.80;99.90
52397;DHT22;38322;53.108;6.308;2022-12-18T08:14:58;-5.80;99.90
52397;DHT22;38322;53.108;6.308;2022-12-18T08:17:24;-5.70;99.90
52397;DHT22;38322;53.108;6.308;2022-12-18T08:19:50;-5.70;99.90
52397;DHT22;38322;53.108;6.308;2022-12-18T08:22:16;-5.60;99.90
52397;DHT22;38322;53.108;6.308;2022-12-18T08:24:42;-5.60;99.90
52397;DHT22;38322;53.108;6.308;2022-12-18T08:27:08;-5.60;99.90
52397;DHT22;38322;53.108;6.308;2022-12-18T08:29:34;-5.60;99.90
52397;DHT22;38322;53.108;6.308;2022-12-18T08:31:59;-5.60;99.90
52397;DHT22;38322;53.108;6.308;2022-12-18T08:34:25;-5.50;99.90
52397;DHT22;38322;53.108;6.308;2022-12-18T08:36:51;-5.50;99.90
52397;DHT22;38322;53.108;6.308;2022-12-18T08:39:17;-5.50;99.90
52397;DHT22;38322;53.108;6.308;2022-12-18T08:41:43;-5.50;99.90
52397;DHT22;38322;53.108;6.308;2022-12-18T08:44:28;-5.40;99.90
52397;DHT22;38322;53.108;6.308;2022-12-18T08:47:07;-5.40;99.90
52397;DHT22;38322;53.108;6.308;2022-12-18T08:49:33;-5.40;99.90
52397;DHT22;38322;53.108;6.308;2022-12-18T08:51:59;-5.30;99.90
52397;DHT22;38322;53.108;6.308;2022-12-18T08:54:25;-5.30;99.90
52397;DHT22;38322;53.108;6.308;2022-12-18T08:56:52;-5.30;99.90
52397;DHT22;38322;53.108;6.308;2022-12-18T08:59:18;-5.20;99.90
52397;DHT22;38322;53.108;6.308;2022-12-18T09:01:45;-5.20;99.90
52397;DHT22;38322;53.108;6.308;2022-12-18T09:04:11;-5.10;99.90
52397;DHT22;38322;53.108;6.308;2022-12-18T09:06:37;-5.10;99.90
52397;DHT22;38322;53.108;6.308;2022-12-18T09:09:04;-5.00;99.90
52397;DHT22;38322;53.108;6.308;2022-12-18T09:11:31;-4.90;99.90
52397;DHT22;38322;53.108;6.308;2022-12-18T09:13:59;-4.90;99.90
52397;DHT22;38322;53.108;6.308;2022-12-18T09:16:26;-4.80;99.90
52397;DHT22;38322;53.108;6.308;2022-12-18T09:18:55;-4.80;99.90
52397;DHT22;38322;53.108;6.308;2022-12-18T09:21:26;-4.70;99.90
52397;DHT22;38322;53.108;6.308;2022-12-18T09:23:53;-4.60;99.90
52397;DHT22;38322;53.108;6.308;2022-12-18T09:26:22;-4.60;99.90
52397;DHT22;38322;53.108;6.308;2022-12-18T09:28:48;-4.50;99.90
52397;DHT22;38322;53.108;6.308;2022-12-18T09:31:15;-4.40;99.90
52397;DHT22;38322;53.108;6.308;2022-12-18T09:33:41;-4.30;99.90
52397;DHT22;38322;53.108;6.308;2022-12-18T09:36:09;-4.20;99.90
52397;DHT22;38322;53.108;6.308;2022-12-18T09:38:35;-4.10;99.90
52397;DHT22;38322;53.108;6.308;2022-12-18T09:43:43;-3.90;99.90
52397;DHT22;38322;53.108;6.308;2022-12-18T09:46:17;-3.90;99.90
52397;DHT22;38322;53.108;6.308;2022-12-18T09:48:49;-3.80;99.90
52397;DHT22;38322;53.108;6.308;2022-12-18T09:51:19;-3.80;99.90
52397;DHT22;38322;53.108;6.308;2022-12-18T09:53:50;-3.80;99.90
52397;DHT22;38322;53.108;6.308;2022-12-18T09:56:19;-3.80;99.90
52397;DHT22;38322;53.108;6.308;2022-12-18T10:01:22;-3.70;99.90
52397;DHT22;38322;53.108;6.308;2022-12-18T10:03:48;-3.60;99.90
52397;DHT22;38322;53.108;6.308;2022-12-18T10:08:52;-3.60;99.90
52397;DHT22;38322;53.108;6.308;2022-12-18T10:11:34;-3.60;99.90
52397;DHT22;38322;53.108;6.308;2022-12-18T10:21:56;-3.50;99.90
52397;DHT22;38322;53.108;6.308;2022-12-18T10:27:13;-3.50;99.90
52397;DHT22;38322;53.108;6.308;2022-12-18T10:29:44;-3.50;99.90
52397;DHT22;38322;53.108;6.308;2022-12-18T10:32:20;-3.50;99.90
52397;DHT22;38322;53.108;6.308;2022-12-18T10:34:48;-3.50;99.90
52397;DHT22;38322;53.108;6.308;2022-12-18T10:37:19;-3.40;99.90
52397;DHT22;38322;53.108;6.308;2022-12-18T10:40:07;-3.40;99.90
52397;DHT22;38322;53.108;6.308;2022-12-18T10:42:33;-3.40;99.90
52397;DHT22;38322;53.108;6.308;2022-12-18T10:45:05;-3.40;99.90
52397;DHT22;38322;53.108;6.308;2022-12-18T10:47:31;-3.30;99.90
52397;DHT22;38322;53.108;6.308;2022-12-18T10:49:59;-3.30;99.90
52397;DHT22;38322;53.108;6.308;2022-12-18T10:52:26;-3.20;99.90
52397;DHT22;38322;53.108;6.308;2022-12-18T10:54:58;-3.20;99.90
52397;DHT22;38322;53.108;6.308;2022-12-18T10:57:32;-3.10;99.90
52397;DHT22;38322;53.108;6.308;2022-12-18T10:59:59;-3.10;99.90
52397;DHT22;38322;53.108;6.308;2022-12-18T11:02:34;-3.10;99.90
52397;DHT22;38322;53.108;6.308;2022-12-18T11:05:01;-3.00;99.90
52397;DHT22;38322;53.108;6.308;2022-12-18T11:07:48;-3.00;99.90
52397;DHT22;38322;53.108;6.308;2022-12-18T11:10:20;-2.90;99.90
52397;DHT22;38322;53.108;6.308;2022-12-18T11:12:46;-2.90;99.90
52397;DHT22;38322;53.108;6.308;2022-12-18T11:15:21;-2.80;99.90
52397;DHT22;38322;53.108;6.308;2022-12-18T11:17:50;-2.80;99.90
52397;DHT22;38322;53.108;6.308;2022-12-18T11:20:32;-2.70;99.90
52397;DHT22;38322;53.108;6.308;2022-12-18T11:23:02;-2.70;99.90
52397;DHT22;38322;53.108;6.308;2022-12-18T11:25:29;-2.70;99.90
52397;DHT22;38322;53.108;6.308;2022-12-18T11:28:04;-2.60;99.90
52397;DHT22;38322;53.108;6.308;2022-12-18T11:30:35;-2.60;99.90
52397;DHT22;38322;53.108;6.308;2022-12-18T11:33:03;-2.50;99.90
52397;DHT22;38322;53.108;6.308;2022-12-18T11:35:34;-2.50;99.90
52397;DHT22;38322;53.108;6.308;2022-12-18T11:38:05;-2.50;99.90
52397;DHT22;38322;53.108;6.308;2022-12-18T11:40:36;-2.50;99.90
52397;DHT22;38322;53.108;6.308;2022-12-18T11:43:24;-2.50;99.90
52397;DHT22;38322;53.108;6.308;2022-12-18T11:45:55;-2.40;99.90
52397;DHT22;38322;53.108;6.308;2022-12-18T11:50:53;-2.30;99.90
52397;DHT22;38322;53.108;6.308;2022-12-18T11:53:20;-2.30;99.90
52397;DHT22;38322;53.108;6.308;2022-12-18T11:55:49;-2.30;99.90
52397;DHT22;38322;53.108;6.308;2022-12-18T12:03:50;-2.20;99.90
52397;DHT22;38322;53.108;6.308;2022-12-18T12:11:42;-2.10;99.90
52397;DHT22;38322;53.108;6.308;2022-12-18T12:16:55;-2.10;99.90
52397;DHT22;38322;53.108;6.308;2022-12-18T12:30:20;-2.00;99.90
52397;DHT22;38322;53.108;6.308;2022-12-18T12:35:51;-2.00;99.90
52397;DHT22;38322;53.108;6.308;2022-12-18T12:38:24;-1.90;99.90
52397;DHT22;38322;53.108;6.308;2022-12-18T12:40:56;-1.90;99.90
52397;DHT22;38322;53.108;6.308;2022-12-18T12:43:30;-1.90;99.90
52397;DHT22;38322;53.108;6.308;2022-12-18T12:46:17;-1.80;99.90
52397;DHT22;38322;53.108;6.308;2022-12-18T12:48:50;-1.80;99.90
52397;DHT22;38322;53.108;6.308;2022-12-18T12:51:26;-1.80;99.90
52397;DHT22;38322;53.108;6.308;2022-12-18T12:53:55;-1.80;99.90
52397;DHT22;38322;53.108;6.308;2022-12-18T12:56:22;-1.80;99.90
52397;DHT22;38322;53.108;6.308;2022-12-18T12:59:01;-1.70;99.90
52397;DHT22;38322;53.108;6.308;2022-12-18T13:01:39;-1.80;99.90
52397;DHT22;38322;53.108;6.308;2022-12-18T13:04:23;-0.90;99.90
52397;DHT22;38322;53.108;6.308;2022-12-18T13:07:01;-1.70;99.90
52397;DHT22;38322;53.108;6.308;2022-12-18T13:09:32;-1.70;99.90
52397;DHT22;38322;53.108;6.308;2022-12-18T13:12:04;-1.70;99.90
52397;DHT22;38322;53.108;6.308;2022-12-18T13:14:53;-1.70;99.90
52397;DHT22;38322;53.108;6.308;2022-12-18T13:17:36;-1.70;99.90
52397;DHT22;38322;53.108;6.308;2022-12-18T13:22:35;-1.70;99.90
52397;DHT22;38322;53.108;6.308;2022-12-18T13:25:03;-1.70;99.90
52397;DHT22;38322;53.108;6.308;2022-12-18T13:35:50;-1.70;99.90
52397;DHT22;38322;53.108;6.308;2022-12-18T13:40:53;-1.70;99.90
52397;DHT22;38322;53.108;6.308;2022-12-18T13:45:59;-1.60;99.90
52397;DHT22;38322;53.108;6.308;2022-12-18T13:48:26;-1.70;99.90
52397;DHT22;38322;53.108;6.308;2022-12-18T13:51:05;-1.60;99.90
52397;DHT22;38322;53.108;6.308;2022-12-18T13:53:36;-1.60;99.90
52397;DHT22;38322;53.108;6.308;2022-12-18T13:56:03;-1.60;99.90
52397;DHT22;38322;53.108;6.308;2022-12-18T13:58:30;-1.70;99.90
52397;DHT22;38322;53.108;6.308;2022-12-18T14:00:56;-1.60;99.90
52397;DHT22;38322;53.108;6.308;2022-12-18T14:03:28;-1.70;99.90
52397;DHT22;38322;53.108;6.308;2022-12-18T14:05:57;-1.70;99.90
52397;DHT22;38322;53.108;6.308;2022-12-18T14:08:30;-1.70;99.90
52397;DHT22;38322;53.108;6.308;2022-12-18T14:10:58;-1.70;99.90
52397;DHT22;38322;53.108;6.308;2022-12-18T14:13:29;-1.70;99.90
52397;DHT22;38322;53.108;6.308;2022-12-18T14:15:56;-1.70;99.90
52397;DHT22;38322;53.108;6.308;2022-12-18T14:18:45;-1.70;99.90
52397;DHT22;38322;53.108;6.308;2022-12-18T14:23:45;-1.80;99.90
52397;DHT22;38322;53.108;6.308;2022-12-18T14:26:24;-1.80;99.90
52397;DHT22;38322;53.108;6.308;2022-12-18T14:28:51;-1.80;99.90
52397;DHT22;38322;53.108;6.308;2022-12-18T14:31:23;-1.80;99.90
52397;DHT22;38322;53.108;6.308;2022-12-18T14:33:49;-1.80;99.90
52397;DHT22;38322;53.108;6.308;2022-12-18T14:36:20;-1.80;99.90
52397;DHT22;38322;53.108;6.308;2022-12-18T14:38:50;-1.80;99.90
52397;DHT22;38322;53.108;6.308;2022-12-18T14:41:18;-1.80;99.90
52397;DHT22;38322;53.108;6.308;2022-12-18T14:43:47;-1.80;99.90
52397;DHT22;38322;53.108;6.308;2022-12-18T14:46:38;-1.80;99.90
52397;DHT22;38322;53.108;6.308;2022-12-18T14:49:19;-1.80;99.90
52397;DHT22;38322;53.108;6.308;2022-12-18T14:51:55;-1.90;99.90
52397;DHT22;38322;53.108;6.308;2022-12-18T14:54:22;-1.80;99.90
52397;DHT22;38322;53.108;6.308;2022-12-18T14:59:24;-1.80;99.90
52397;DHT22;38322;53.108;6.308;2022-12-18T15:02:02;-1.90;99.90
52397;DHT22;38322;53.108;6.308;2022-12-18T15:04:33;-1.80;99.90
52397;DHT22;38322;53.108;6.308;2022-12-18T15:07:15;-1.90;99.90
52397;DHT22;38322;53.108;6.308;2022-12-18T15:09:44;-1.90;99.90
52397;DHT22;38322;53.108;6.308;2022-12-18T15:17:59;-1.90;99.90
52397;DHT22;38322;53.108;6.308;2022-12-18T15:20:26;-1.90;99.90
52397;DHT22;38322;53.108;6.308;2022-12-18T15:22:52;-2.00;99.90
52397;DHT22;38322;53.108;6.308;2022-12-18T15:25:34;-2.00;99.90
52397;DHT22;38322;53.108;6.308;2022-12-18T15:28:02;-2.00;99.90
52397;DHT22;38322;53.108;6.308;2022-12-18T15:30:28;-2.00;99.90
52397;DHT22;38322;53.108;6.308;2022-12-18T15:33:16;-2.00;99.90
52397;DHT22;38322;53.108;6.308;2022-12-18T15:35:42;-2.00;99.90
52397;DHT22;38322;53.108;6.308;2022-12-18T15:38:08;-2.00;99.90
52397;DHT22;38322;53.108;6.308;2022-12-18T15:40:34;-2.00;99.90
52397;DHT22;38322;53.108;6.308;2022-12-18T15:43:00;-1.90;99.90
52397;DHT22;38322;53.108;6.308;2022-12-18T15:45:45;-1.90;99.90
52397;DHT22;38322;53.108;6.308;2022-12-18T15:48:21;-1.90;99.90
52397;DHT22;38322;53.108;6.308;2022-12-18T15:50:50;-2.00;99.90
52397;DHT22;38322;53.108;6.308;2022-12-18T15:53:16;-2.00;99.90
52397;DHT22;38322;53.108;6.308;2022-12-18T15:55:43;-2.00;99.90
52397;DHT22;38322;53.108;6.308;2022-12-18T15:58:27;-2.00;99.90
52397;DHT22;38322;53.108;6.308;2022-12-18T16:00:55;-2.00;99.90
52397;DHT22;38322;53.108;6.308;2022-12-18T16:03:22;-2.00;99.90
52397;DHT22;38322;53.108;6.308;2022-12-18T16:05:48;-2.00;99.90
52397;DHT22;38322;53.108;6.308;2022-12-18T16:08:14;-2.00;99.90
52397;DHT22;38322;53.108;6.308;2022-12-18T16:10:40;-2.00;99.90
52397;DHT22;38322;53.108;6.308;2022-12-18T16:13:10;-2.00;99.90
52397;DHT22;38322;53.108;6.308;2022-12-18T16:15:37;-2.00;99.90
52397;DHT22;38322;53.108;6.308;2022-12-18T16:18:03;-2.00;99.90
52397;DHT22;38322;53.108;6.308;2022-12-18T16:20:29;-2.00;99.90
52397;DHT22;38322;53.108;6.308;2022-12-18T16:22:55;-2.00;99.90
52397;DHT22;38322;53.108;6.308;2022-12-18T16:25:23;-2.00;99.90
52397;DHT22;38322;53.108;6.308;2022-12-18T16:27:50;-2.00;99.90
52397;DHT22;38322;53.108;6.308;2022-12-18T16:30:19;-2.00;99.90
52397;DHT22;38322;53.108;6.308;2022-12-18T16:32:45;-2.00;99.90
52397;DHT22;38322;53.108;6.308;2022-12-18T16:35:12;-2.00;99.90
52397;DHT22;38322;53.108;6.308;2022-12-18T16:37:39;-2.00;99.90
52397;DHT22;38322;53.108;6.308;2022-12-18T16:40:07;-2.00;99.90
52397;DHT22;38322;53.108;6.308;2022-12-18T16:42:35;-2.00;99.90
52397;DHT22;38322;53.108;6.308;2022-12-18T16:45:03;-2.00;99.90
52397;DHT22;38322;53.108;6.308;2022-12-18T16:47:29;-2.00;99.90
52397;DHT22;38322;53.108;6.308;2022-12-18T16:49:55;-1.90;99.90
52397;DHT22;38322;53.108;6.308;2022-12-18T16:52:21;-1.90;99.90
52397;DHT22;38322;53.108;6.308;2022-12-18T16:54:47;-1.90;99.90
52397;DHT22;38322;53.108;6.308;2022-12-18T16:57:16;-1.90;99.90
52397;DHT22;38322;53.108;6.308;2022-12-18T16:59:44;-1.90;99.90
52397;DHT22;38322;53.108;6.308;2022-12-18T17:02:15;-1.90;99.90
52397;DHT22;38322;53.108;6.308;2022-12-18T17:04:42;-1.80;99.90
52397;DHT22;38322;53.108;6.308;2022-12-18T17:07:08;-1.90;99.90
52397;DHT22;38322;53.108;6.308;2022-12-18T17:09:34;-1.80;99.90
52397;DHT22;38322;53.108;6.308;2022-12-18T17:12:00;-1.80;99.90
52397;DHT22;38322;53.108;6.308;2022-12-18T17:14:26;-1.80;99.90
52397;DHT22;38322;53.108;6.308;2022-12-18T17:16:53;-1.80;99.90
52397;DHT22;38322;53.108;6.308;2022-12-18T17:19:19;-1.80;99.90
52397;DHT22;38322;53.108;6.308;2022-12-18T17:21:49;-1.80;99.90
52397;DHT22;38322;53.108;6.308;2022-12-18T17:24:15;-1.80;99.90
52397;DHT22;38322;53.108;6.308;2022-12-18T17:26:41;-1.80;99.90
52397;DHT22;38322;53.108;6.308;2022-12-18T17:29:08;-1.70;99.90
52397;DHT22;38322;53.108;6.308;2022-12-18T17:31:34;-1.70;99.90
52397;DHT22;38322;53.108;6.308;2022-12-18T17:34:02;-1.70;99.90
52397;DHT22;38322;53.108;6.308;2022-12-18T17:36:28;-1.70;99.90
52397;DHT22;38322;53.108;6.308;2022-12-18T17:38:58;-1.70;99.90
52397;DHT22;38322;53.108;6.308;2022-12-18T17:41:25;-1.70;99.90
52397;DHT22;38322;53.108;6.308;2022-12-18T17:43:54;-1.70;99.90
52397;DHT22;38322;53.108;6.308;2022-12-18T17:46:21;-1.70;99.90
52397;DHT22;38322;53.108;6.308;2022-12-18T17:48:47;-1.70;99.90
52397;DHT22;38322;53.108;6.308;2022-12-18T17:51:14;-1.70;99.90
52397;DHT22;38322;53.108;6.308;2022-12-18T17:53:40;-1.70;99.90
52397;DHT22;38322;53.108;6.308;2022-12-18T17:56:07;-1.70;99.90
52397;DHT22;38322;53.108;6.308;2022-12-18T17:58:36;-1.70;99.90
52397;DHT22;38322;53.108;6.308;2022-12-18T18:01:03;-1.70;99.90
52397;DHT22;38322;53.108;6.308;2022-12-18T18:03:30;-1.70;99.90
52397;DHT22;38322;53.108;6.308;2022-12-18T18:05:58;-1.70;99.90
52397;DHT22;38322;53.108;6.308;2022-12-18T18:08:25;-1.70;99.90
52397;DHT22;38322;53.108;6.308;2022-12-18T18:10:51;-1.70;99.90
52397;DHT22;38322;53.108;6.308;2022-12-18T18:13:21;-1.60;99.90
52397;DHT22;38322;53.108;6.308;2022-12-18T18:16:07;-1.70;99.90
52397;DHT22;38322;53.108;6.308;2022-12-18T18:18:33;-1.70;99.90
52397;DHT22;38322;53.108;6.308;2022-12-18T18:21:04;-1.70;99.90
52397;DHT22;38322;53.108;6.308;2022-12-18T18:23:32;-1.70;99.90
52397;DHT22;38322;53.108;6.308;2022-12-18T18:26:06;-1.70;99.90
52397;DHT22;38322;53.108;6.308;2022-12-18T18:28:32;-1.70;99.90
52397;DHT22;38322;53.108;6.308;2022-12-18T18:31:04;-1.70;99.90
52397;DHT22;38322;53.108;6.308;2022-12-18T18:33:31;-1.60;99.90
52397;DHT22;38322;53.108;6.308;2022-12-18T18:35:57;-1.60;99.90
52397;DHT22;38322;53.108;6.308;2022-12-18T18:38:23;-1.60;99.90
52397;DHT22;38322;53.108;6.308;2022-12-18T18:40:58;-1.60;99.90
52397;DHT22;38322;53.108;6.308;2022-12-18T18:43:24;-1.60;99.90
52397;DHT22;38322;53.108;6.308;2022-12-18T18:45:54;-1.60;99.90
52397;DHT22;38322;53.108;6.308;2022-12-18T18:48:20;-1.60;99.90
52397;DHT22;38322;53.108;6.308;2022-12-18T18:50:58;-1.60;99.90
52397;DHT22;38322;53.108;6.308;2022-12-18T18:53:24;-1.60;99.90
52397;DHT22;38322;53.108;6.308;2022-12-18T18:55:50;-1.60;99.90
52397;DHT22;38322;53.108;6.308;2022-12-18T18:58:16;-1.60;99.90
52397;DHT22;38322;53.108;6.308;2022-12-18T19:00:42;-1.60;99.90
52397;DHT22;38322;53.108;6.308;2022-12-18T19:03:08;-1.60;99.90
52397;DHT22;38322;53.108;6.308;2022-12-18T19:05:34;-1.60;99.90
52397;DHT22;38322;53.108;6.308;2022-12-18T19:08:00;-1.50;99.90
52397;DHT22;38322;53.108;6.308;2022-12-18T19:10:25;-1.60;99.90
52397;DHT22;38322;53.108;6.308;2022-12-18T19:12:51;-1.60;99.90
52397;DHT22;38322;53.108;6.308;2022-12-18T19:15:35;-1.50;99.90
52397;DHT22;38322;53.108;6.308;2022-12-18T19:18:01;-1.50;99.90
52397;DHT22;38322;53.108;6.308;2022-12-18T19:20:27;-1.50;99.90
52397;DHT22;38322;53.108;6.308;2022-12-18T19:22:55;-1.50;99.90
52397;DHT22;38322;53.108;6.308;2022-12-18T19:25:22;-1.50;99.90
52397;DHT22;38322;53.108;6.308;2022-12-18T19:27:48;-1.50;99.90
52397;DHT22;38322;53.108;6.308;2022-12-18T19:30:14;-1.50;99.90
52397;DHT22;38322;53.108;6.308;2022-12-18T19:32:40;-1.50;99.90
52397;DHT22;38322;53.108;6.308;2022-12-18T19:35:06;-1.40;99.90
52397;DHT22;38322;53.108;6.308;2022-12-18T19:37:33;-1.40;99.90
52397;DHT22;38322;53.108;6.308;2022-12-18T19:39:59;-1.40;99.90
52397;DHT22;38322;53.108;6.308;2022-12-18T19:42:25;-1.40;99.90
52397;DHT22;38322;53.108;6.308;2022-12-18T19:44:51;-1.30;99.90
52397;DHT22;38322;53.108;6.308;2022-12-18T19:47:17;-1.30;99.90
52397;DHT22;38322;53.108;6.308;2022-12-18T19:49:43;-1.30;99.90
52397;DHT22;38322;53.108;6.308;2022-12-18T19:52:09;-1.30;99.90
52397;DHT22;38322;53.108;6.308;2022-12-18T19:54:35;-1.30;99.90
52397;DHT22;38322;53.108;6.308;2022-12-18T19:57:01;-1.20;99.90
52397;DHT22;38322;53.108;6.308;2022-12-18T19:59:27;-1.20;99.90
52397;DHT22;38322;53.108;6.308;2022-12-18T20:01:53;-1.20;99.90
52397;DHT22;38322;53.108;6.308;2022-12-18T20:04:19;-1.20;99.90
52397;DHT22;38322;53.108;6.308;2022-12-18T20:06:48;-1.10;99.90
52397;DHT22;38322;53.108;6.308;2022-12-18T20:09:15;-1.10;99.90
52397;DHT22;38322;53.108;6.308;2022-12-18T20:11:41;-1.10;99.90
52397;DHT22;38322;53.108;6.308;2022-12-18T20:14:09;-1.00;99.90
52397;DHT22;38322;53.108;6.308;2022-12-18T20:16:35;-1.00;99.90
52397;DHT22;38322;53.108;6.308;2022-12-18T20:19:01;-1.00;99.90
52397;DHT22;38322;53.108;6.308;2022-12-18T20:21:27;-1.00;99.90
52397;DHT22;38322;53.108;6.308;2022-12-18T20:23:53;-0.90;99.90
52397;DHT22;38322;53.108;6.308;2022-12-18T20:26:21;-0.90;99.90
52397;DHT22;38322;53.108;6.308;2022-12-18T20:28:47;-0.90;99.90
52397;DHT22;38322;53.108;6.308;2022-12-18T20:31:13;-0.90;99.90
52397;DHT22;38322;53.108;6.308;2022-12-18T20:33:39;-0.90;99.90
52397;DHT22;38322;53.108;6.308;2022-12-18T20:36:07;-0.90;99.90
52397;DHT22;38322;53.108;6.308;2022-12-18T20:38:34;-0.90;99.90
52397;DHT22;38322;53.108;6.308;2022-12-18T20:41:07;-0.90;99.90
52397;DHT22;38322;53.108;6.308;2022-12-18T20:43:33;-0.90;99.90
52397;DHT22;38322;53.108;6.308;2022-12-18T20:46:00;-0.90;99.90
52397;DHT22;38322;53.108;6.308;2022-12-18T20:48:27;-0.90;99.90
52397;DHT22;38322;53.108;6.308;2022-12-18T20:51:00;-0.90;99.90
52397;DHT22;38322;53.108;6.308;2022-12-18T20:53:27;-0.90;99.90
52397;DHT22;38322;53.108;6.308;2022-12-18T20:55:53;-0.90;99.90
52397;DHT22;38322;53.108;6.308;2022-12-18T20:58:19;-0.80;99.90
